Orange City, IA

7:16 PM CST on February 20, 2017 (GMT -0600)
Orange City Municipal

Weather History for KORC - January, 2014

Change the Weather History Date:

Sunday, January 12, 2014

  Actual Average Record
Temperature  
Mean Temperature 36 °F -  
Max Temperature 42 °F 26 °F 51 °F (2004)
Min Temperature 30 °F 10 °F -5 °F (2015)
Degree Days  
Heating Degree Days 29    
Moisture  
Dew Point 29 °F    
Average Humidity 72    
Maximum Humidity 81    
Minimum Humidity 65    
Precipitation  
Precipitation 0.00 in - - ()
Sea Level Pressure  
Sea Level Pressure 29.49 in    
Wind  
Wind Speed 12 mph (WSW)    
Max Wind Speed 23 mph    
Max Gust Speed 29 mph    
Visibility 10 miles    
Events      
Averages and records for this station are not official NWS values.
T = Trace of Precipitation, MM = Missing Value Source: NWS Daily Summary

Daily Weather History Graph

Daily Weather History Graph

Search for Another Location

Airport or City:

Trip Planner

Search our weather history database for the weather conditions in past years. The results will help you decide how hot, cold, wet, or windy it might be!

Date:

Astronomy

Jan. 12, 2014 Rise Set
Actual Time 7:53 AM CST 5:11 PM CST
Civil Twilight 7:22 AM CST 5:43 PM CST
Nautical Twilight 6:47 AM CST 6:18 PM CST
Astronomical Twilight 6:12 AM CST 6:52 PM CST
Moon 2:40 PM CST (1/12) 4:52 AM CST (1/12)
Length of Visible Light 10h 20m
Length of Day
9h 17m
Waxing Gibbous, 90% of the Moon is Illuminated
Jan 12
Waxing Gibbous
Jan 15
Full
Jan 23
Last Quarter
Jan 30
New
Feb 6
First Quarter

Hourly Weather History & Observations

Time (CST) Temp. Windchill Dew Point Humidity Pressure Visibility Wind Dir Wind Speed Gust Speed Precip Events Conditions
12:15 AM 30.2 °F 20.8 °F 21.2 °F 69% 29.58 in 10.0 mi South 11.5 mph - N/A   Clear
12:35 AM 32.0 °F 23.6 °F 23.0 °F 69% 29.56 in 10.0 mi South 10.4 mph - N/A   Clear
12:55 AM 32.0 °F 22.5 °F 23.0 °F 69% 29.54 in 10.0 mi South 12.7 mph - N/A   Clear
1:15 AM 33.8 °F 23.5 °F 24.8 °F 70% 29.52 in 10.0 mi South 16.1 mph - N/A   Clear
1:35 AM 33.8 °F 23.5 °F 26.6 °F 75% 29.51 in 10.0 mi South 16.1 mph - N/A   Clear
1:55 AM 35.6 °F 24.8 °F 26.6 °F 70% 29.49 in 10.0 mi South 19.6 mph 25.3 mph N/A   Clear
2:15 AM 35.6 °F 24.2 °F 26.6 °F 70% 29.48 in 10.0 mi South 21.9 mph 27.6 mph N/A   Scattered Clouds
2:35 AM 35.6 °F 25.5 °F 26.6 °F 70% 29.47 in 10.0 mi South 17.3 mph 21.9 mph N/A   Scattered Clouds
2:55 AM 35.6 °F 25.9 °F 26.6 °F 70% 29.45 in 10.0 mi South 16.1 mph - N/A   Scattered Clouds
3:15 AM 35.6 °F 26.2 °F 26.6 °F 70% 29.44 in 10.0 mi South 15.0 mph - N/A   Mostly Cloudy
3:35 AM 35.6 °F 25.2 °F 26.6 °F 70% 29.43 in 10.0 mi South 18.4 mph 23.0 mph N/A   Mostly Cloudy
3:55 AM 35.6 °F 24.2 °F 26.6 °F 70% 29.41 in 10.0 mi SSW 21.9 mph 25.3 mph N/A   Clear
4:15 AM 35.6 °F 24.0 °F 26.6 °F 70% 29.40 in 10.0 mi South 23.0 mph - N/A   Clear
4:35 AM 35.6 °F 24.2 °F 26.6 °F 70% 29.38 in 10.0 mi SSW 21.9 mph 26.5 mph N/A   Clear
4:55 AM 35.6 °F 24.2 °F 26.6 °F 70% 29.38 in 10.0 mi SSW 21.9 mph 28.8 mph N/A   Clear
5:15 AM 35.6 °F 24.8 °F 26.6 °F 70% 29.38 in 10.0 mi SSW 19.6 mph - N/A   Clear
5:35 AM 35.6 °F 26.2 °F 26.6 °F 70% 29.38 in 10.0 mi SSW 15.0 mph - N/A   Clear
5:55 AM 35.6 °F 26.6 °F 26.6 °F 70% 29.39 in 10.0 mi SW 13.8 mph - N/A   Clear
6:15 AM 35.6 °F 26.2 °F 24.8 °F 65% 29.39 in 10.0 mi SSW 15.0 mph - N/A   Clear
6:35 AM 33.8 °F 23.9 °F 24.8 °F 70% 29.38 in 10.0 mi SSW 15.0 mph - N/A   Clear
6:55 AM 33.8 °F 23.9 °F 24.8 °F 70% 29.38 in 10.0 mi SSW 15.0 mph - N/A   Clear
7:15 AM 33.8 °F 23.5 °F 24.8 °F 70% 29.38 in 10.0 mi SSW 16.1 mph - N/A   Clear
7:35 AM 35.6 °F 26.2 °F 26.6 °F 70% 29.38 in 10.0 mi SSW 15.0 mph - N/A   Clear
7:55 AM 35.6 °F 26.6 °F 26.6 °F 70% 29.38 in 10.0 mi SSW 13.8 mph - N/A   Clear
8:15 AM 35.6 °F 27.1 °F 26.6 °F 70% 29.39 in 10.0 mi SSW 12.7 mph - N/A   Clear
8:35 AM 35.6 °F 28.0 °F 26.6 °F 70% 29.41 in 10.0 mi SW 10.4 mph - N/A   Clear
8:55 AM 37.4 °F 31.4 °F 26.6 °F 65% 29.42 in 10.0 mi SW 8.1 mph - N/A   Clear
9:15 AM 37.4 °F 32.1 °F 26.6 °F 65% 29.43 in 10.0 mi SW 6.9 mph - N/A   Clear
9:35 AM 37.4 °F 32.1 °F 26.6 °F 65% 29.44 in 10.0 mi WSW 6.9 mph - N/A   Clear
9:55 AM 37.4 °F 32.8 °F 28.4 °F 70% 29.44 in 10.0 mi West 5.8 mph - N/A   Clear
10:15 AM 39.2 °F 34.2 °F 30.2 °F 70% 29.43 in 10.0 mi WNW 6.9 mph - N/A   Clear
10:35 AM 39.2 °F 33.6 °F 32.0 °F 75% 29.43 in 10.0 mi West 8.1 mph - N/A   Clear
10:55 AM 41.0 °F 35.8 °F 33.8 °F 76% 29.44 in 10.0 mi West 8.1 mph - N/A   Clear
11:15 AM 41.0 °F 35.2 °F 33.8 °F 76% 29.44 in 10.0 mi WNW 9.2 mph - N/A   Clear
11:35 AM 42.8 °F 36.6 °F 33.8 °F 70% 29.44 in 10.0 mi WNW 11.5 mph - N/A   Clear
11:55 AM 42.8 °F 37.0 °F 33.8 °F 70% - 10.0 mi WNW 10.4 mph - N/A   Clear
12:15 PM 42.8 °F 37.5 °F 33.8 °F 70% 29.42 in 10.0 mi NW 9.2 mph - N/A   Clear
12:35 PM 42.8 °F 38.0 °F 33.8 °F 70% 29.41 in 10.0 mi NNW 8.1 mph - N/A   Clear
12:55 PM 42.8 °F 37.0 °F 33.8 °F 70% 29.43 in 10.0 mi WNW 10.4 mph - N/A   Clear
1:15 PM 42.8 °F 38.6 °F 33.8 °F 70% 29.42 in 10.0 mi NNW 6.9 mph - N/A   Clear
1:35 PM 42.8 °F 38.6 °F 33.8 °F 70% 29.43 in 10.0 mi NW 6.9 mph - N/A   Clear
1:55 PM 42.8 °F 39.3 °F 33.8 °F 70% 29.45 in 10.0 mi WNW 5.8 mph - N/A   Clear
2:15 PM 42.8 °F 39.3 °F 33.8 °F 70% 29.46 in 10.0 mi WNW 5.8 mph - N/A   Clear
2:35 PM 42.8 °F 38.0 °F 33.8 °F 70% 29.47 in 10.0 mi WNW 8.1 mph - N/A   Clear
2:55 PM 42.8 °F 37.5 °F 33.8 °F 70% 29.48 in 10.0 mi WNW 9.2 mph - N/A   Clear
3:15 PM 41.0 °F 36.4 °F 33.8 °F 76% 29.48 in 10.0 mi WNW 6.9 mph - N/A   Clear
3:35 PM 41.0 °F 35.8 °F 33.8 °F 76% 29.50 in 10.0 mi NW 8.1 mph - N/A   Clear
3:55 PM 39.2 °F 34.2 °F 32.0 °F 75% 29.51 in 10.0 mi NW 6.9 mph - N/A   Clear
4:15 PM 39.2 °F 35.9 °F 32.0 °F 75% 29.51 in 10.0 mi WNW 4.6 mph - N/A   Clear
4:35 PM 39.2 °F - 32.0 °F 75% 29.51 in 10.0 mi Calm Calm - N/A   Clear
4:55 PM 37.4 °F 32.1 °F 30.2 °F 75% 29.53 in 10.0 mi West 6.9 mph - N/A   Clear
5:15 PM 37.4 °F 30.8 °F 30.2 °F 75% 29.53 in 10.0 mi WNW 9.2 mph - N/A   Clear
5:35 PM 37.4 °F 32.1 °F 30.2 °F 75% 29.55 in 10.0 mi WNW 6.9 mph - N/A   Scattered Clouds
5:55 PM 37.4 °F 32.8 °F 30.2 °F 75% 29.56 in 10.0 mi West 5.8 mph - N/A   Scattered Clouds
6:15 PM 37.4 °F 31.4 °F 30.2 °F 75% 29.57 in 10.0 mi West 8.1 mph - N/A   Clear
6:35 PM 37.4 °F 31.4 °F 30.2 °F 75% 29.58 in 10.0 mi West 8.1 mph - N/A   Clear
6:55 PM 35.6 °F 30.7 °F 28.4 °F 75% 29.59 in 10.0 mi West 5.8 mph - N/A   Scattered Clouds
7:15 PM 37.4 °F 32.1 °F 30.2 °F 75% 29.60 in 10.0 mi West 6.9 mph - N/A   Scattered Clouds
7:35 PM 35.6 °F 31.7 °F 28.4 °F 75% 29.60 in 10.0 mi West 4.6 mph - N/A   Scattered Clouds
7:55 PM 35.6 °F 31.7 °F 28.4 °F 75% 29.60 in 10.0 mi WNW 4.6 mph - N/A   Scattered Clouds
8:15 PM 35.6 °F 31.7 °F 28.4 °F 75% 29.60 in 10.0 mi WNW 4.6 mph - N/A   Scattered Clouds
8:35 PM 35.6 °F 31.7 °F 30.2 °F 81% 29.59 in 10.0 mi WNW 4.6 mph - N/A   Clear
8:55 PM 35.6 °F 30.7 °F 28.4 °F 75% 29.59 in 10.0 mi WNW 5.8 mph - N/A   Clear
9:15 PM 35.6 °F 31.7 °F 30.2 °F 81% 29.60 in 10.0 mi West 4.6 mph - N/A   Clear
9:35 PM 35.6 °F 29.2 °F 28.4 °F 75% 29.60 in 10.0 mi West 8.1 mph - N/A   Scattered Clouds
9:55 PM 35.6 °F 30.7 °F 30.2 °F 81% 29.61 in 10.0 mi WNW 5.8 mph - N/A   Scattered Clouds
10:15 PM 37.4 °F 30.8 °F 30.2 °F 75% 29.60 in 10.0 mi WNW 9.2 mph - N/A   Scattered Clouds
10:35 PM 37.4 °F 30.3 °F 30.2 °F 75% 29.61 in 10.0 mi NW 10.4 mph - N/A   Clear
10:55 PM 37.4 °F 33.8 °F 30.2 °F 75% 29.60 in 10.0 mi NW 4.6 mph - N/A   Scattered Clouds
11:15 PM 35.6 °F - 30.2 °F 81% 29.60 in 10.0 mi Calm Calm - N/A   Clear
11:35 PM 37.4 °F 30.8 °F 30.2 °F 75% 29.62 in 10.0 mi West 9.2 mph - N/A   Clear
11:55 PM 37.4 °F 29.8 °F 30.2 °F 75% 29.62 in 10.0 mi West 11.5 mph - N/A   Clear